createdAt,value
2022-09-23T00:01:23.217Z,5.73
2022-09-23T00:03:51.095Z,5.71
2022-09-23T00:06:23.006Z,5.73
2022-09-23T00:08:52.469Z,5.73
2022-09-23T00:11:26.154Z,5.72
2022-09-23T00:13:58.432Z,5.79
2022-09-23T00:16:34.141Z,5.72
2022-09-23T00:19:03.968Z,5.73
2022-09-23T00:21:32.071Z,5.72
2022-09-23T00:23:59.707Z,5.64
2022-09-23T00:26:27.965Z,5.59
2022-09-23T00:28:55.989Z,5.60
2022-09-23T00:31:26.456Z,5.43
2022-09-23T00:34:00.912Z,5.36
2022-09-23T00:36:30.432Z,5.34
2022-09-23T00:38:58.367Z,5.40
2022-09-23T00:41:27.769Z,5.48
2022-09-23T00:44:01.108Z,5.29
2022-09-23T00:46:39.201Z,5.30
2022-09-23T00:49:13.965Z,5.15
2022-09-23T00:51:52.198Z,5.25
2022-09-23T00:54:22.318Z,5.38
2022-09-23T00:56:50.000Z,5.15
2022-09-23T00:59:18.933Z,5.21
2022-09-23T01:01:49.754Z,5.25
2022-09-23T01:04:17.492Z,5.25
2022-09-23T01:06:45.389Z,5.09
2022-09-23T01:09:13.241Z,5.14
2022-09-23T01:12:06.926Z,5.13
2022-09-23T01:15:08.738Z,5.25
2022-09-23T01:17:59.673Z,5.27
2022-09-23T01:21:13.268Z,5.22
2022-09-23T01:24:29.436Z,5.16
2022-09-23T01:27:13.858Z,5.20
2022-09-23T01:30:37.906Z,5.27
2022-09-23T01:33:31.206Z,5.21
2022-09-23T01:36:25.351Z,5.16
2022-09-23T01:39:14.632Z,5.14
2022-09-23T01:42:01.075Z,5.18
2022-09-23T01:44:56.363Z,5.24
2022-09-23T01:47:40.072Z,5.26
2022-09-23T01:50:38.555Z,5.18
2022-09-23T01:53:46.203Z,5.28
2022-09-23T01:56:31.293Z,5.34
2022-09-23T01:59:21.588Z,5.35
2022-09-23T02:02:19.271Z,5.30
2022-09-23T02:05:05.015Z,5.34
2022-09-23T02:07:44.731Z,5.26
2022-09-23T02:10:36.126Z,5.18
2022-09-23T02:13:16.726Z,5.19
2022-09-23T02:15:59.500Z,5.12
2022-09-23T02:18:51.191Z,5.12
2022-09-23T02:21:25.241Z,5.19
2022-09-23T02:24:05.777Z,5.21
2022-09-23T02:26:38.372Z,5.29
2022-09-23T02:29:29.922Z,5.37
2022-09-23T02:32:32.072Z,5.23
2022-09-23T02:35:37.222Z,5.25
2022-09-23T02:38:42.540Z,5.19
2022-09-23T02:41:25.295Z,5.19
2022-09-23T02:44:07.290Z,5.20
2022-09-23T02:46:37.145Z,5.08
2022-09-23T02:49:26.990Z,5.18
2022-09-23T02:52:01.381Z,5.16
2022-09-23T02:54:29.645Z,5.17
2022-09-23T02:57:01.294Z,5.05
2022-09-23T02:59:30.796Z,5.02
2022-09-23T03:02:20.724Z,5.07
2022-09-23T03:05:19.412Z,5.04
2022-09-23T03:08:50.495Z,5.00
2022-09-23T03:11:20.649Z,4.92
2022-09-23T03:14:17.536Z,4.94
2022-09-23T03:16:55.921Z,4.97
2022-09-23T03:19:35.061Z,4.99
2022-09-23T03:22:33.071Z,4.72
2022-09-23T03:25:08.444Z,4.74
2022-09-23T03:27:39.180Z,4.84
2022-09-23T03:30:09.701Z,4.82
2022-09-23T03:32:39.409Z,4.77
2022-09-23T03:35:08.307Z,4.72
2022-09-23T03:37:47.693Z,4.79
2022-09-23T03:40:20.648Z,4.66
2022-09-23T03:42:51.706Z,4.68
2022-09-23T03:45:27.630Z,4.83
2022-09-23T03:47:55.463Z,4.89
2022-09-23T03:50:23.467Z,4.85
2022-09-23T03:52:51.523Z,4.97
2022-09-23T03:55:21.364Z,4.95
2022-09-23T03:57:49.074Z,4.96
2022-09-23T04:00:16.858Z,5.15
2022-09-23T04:02:45.526Z,5.29
2022-09-23T04:05:15.029Z,5.23
2022-09-23T04:07:42.777Z,5.15
2022-09-23T04:10:11.566Z,5.08
2022-09-23T04:12:39.264Z,5.09
2022-09-23T04:15:07.724Z,5.04
2022-09-23T04:17:35.650Z,5.05
2022-09-23T04:20:04.306Z,5.12
2022-09-23T04:22:35.131Z,5.27
2022-09-23T04:25:03.217Z,5.26
2022-09-23T04:27:35.469Z,5.29
2022-09-23T04:30:07.198Z,5.35
2022-09-23T04:32:36.341Z,5.27
2022-09-23T04:35:05.471Z,5.32
2022-09-23T04:37:33.433Z,5.42
2022-09-23T04:40:01.343Z,5.29
2022-09-23T04:42:30.741Z,5.36
2022-09-23T04:44:58.866Z,5.51
2022-09-23T04:47:26.582Z,5.58
2022-09-23T04:49:59.053Z,5.47
2022-09-23T04:52:27.916Z,5.49
2022-09-23T04:54:55.586Z,5.38
2022-09-23T04:57:24.661Z,5.26
2022-09-23T04:59:54.946Z,5.17
2022-09-23T05:02:22.869Z,5.27
2022-09-23T05:04:50.682Z,5.51
2022-09-23T05:07:19.164Z,5.50
2022-09-23T05:09:46.984Z,5.56
2022-09-23T05:12:14.643Z,5.58
2022-09-23T05:14:42.337Z,5.67
2022-09-23T05:17:09.927Z,5.76
2022-09-23T05:19:37.747Z,5.86
2022-09-23T05:22:06.018Z,5.99
2022-09-23T05:24:33.765Z,6.04
2022-09-23T05:27:01.703Z,6.27
2022-09-23T05:29:29.625Z,6.42
2022-09-23T05:31:57.351Z,6.64
2022-09-23T05:34:25.123Z,6.69
2022-09-23T05:36:53.131Z,6.79
2022-09-23T05:39:20.788Z,6.86
2022-09-23T05:41:49.097Z,6.97
2022-09-23T05:44:17.599Z,7.20
2022-09-23T05:46:45.365Z,7.32
2022-09-23T05:49:13.210Z,7.49
2022-09-23T05:51:41.208Z,7.63
2022-09-23T05:54:09.008Z,7.71
2022-09-23T05:56:37.941Z,7.86
2022-09-23T05:59:07.063Z,8.02
2022-09-23T06:01:38.182Z,8.27
2022-09-23T06:04:08.191Z,8.29
2022-09-23T06:06:42.777Z,8.39
2022-09-23T06:09:14.773Z,8.56
2022-09-23T06:11:42.970Z,8.78
2022-09-23T06:14:14.717Z,8.94
2022-09-23T06:16:43.241Z,8.94
2022-09-23T06:19:11.217Z,9.11
2022-09-23T06:21:41.147Z,9.21
2022-09-23T06:24:13.334Z,9.33
2022-09-23T06:26:43.725Z,9.34
2022-09-23T06:29:12.435Z,9.43
2022-09-23T06:31:43.335Z,9.64
2022-09-23T06:34:14.656Z,9.73
2022-09-23T06:36:45.896Z,9.79
2022-09-23T06:39:15.773Z,9.80
2022-09-23T06:41:45.437Z,9.88
2022-09-23T06:44:15.200Z,9.85
2022-09-23T06:46:43.837Z,10.05
2022-09-23T06:49:12.230Z,10.13
2022-09-23T06:51:40.250Z,10.23
2022-09-23T06:54:08.521Z,10.35
2022-09-23T06:56:39.037Z,10.36
2022-09-23T06:59:11.275Z,10.43
2022-09-23T07:01:39.563Z,10.49
2022-09-23T07:04:07.795Z,10.60
2022-09-23T07:06:36.246Z,10.78
2022-09-23T07:09:07.133Z,10.92
2022-09-23T07:11:35.064Z,11.01
2022-09-23T07:14:03.109Z,11.09
2022-09-23T07:16:31.751Z,11.21
2022-09-23T07:18:59.663Z,11.37
2022-09-23T07:21:27.958Z,11.41
2022-09-23T07:23:58.172Z,11.41
2022-09-23T07:26:25.810Z,11.50
2022-09-23T07:28:56.954Z,11.51
2022-09-23T07:31:37.894Z,11.79
2022-09-23T07:34:11.572Z,11.85
2022-09-23T07:36:41.058Z,11.89
2022-09-23T07:39:12.382Z,11.94
2022-09-23T07:41:44.323Z,12.30
2022-09-23T07:44:12.698Z,12.19
2022-09-23T07:46:40.518Z,12.14
2022-09-23T07:49:08.561Z,12.14
2022-09-23T07:51:38.897Z,12.43
2022-09-23T07:54:11.720Z,12.41
2022-09-23T07:56:41.988Z,12.64
2022-09-23T07:59:15.387Z,12.55
2022-09-23T08:01:48.020Z,12.83
2022-09-23T08:04:28.265Z,12.86
2022-09-23T08:07:04.168Z,12.74
2022-09-23T08:09:39.455Z,12.90
2022-09-23T08:12:12.786Z,12.78
2022-09-23T08:14:43.748Z,12.97
2022-09-23T08:17:14.659Z,13.06
2022-09-23T08:19:42.350Z,12.73
2022-09-23T08:22:09.971Z,13.31
2022-09-23T08:24:38.003Z,13.44
2022-09-23T08:27:05.904Z,13.17
2022-09-23T08:29:33.446Z,13.17
2022-09-23T08:32:01.693Z,13.65
2022-09-23T08:34:29.929Z,13.43
2022-09-23T08:36:57.512Z,13.73
2022-09-23T08:39:25.427Z,13.47
2022-09-23T08:41:57.554Z,13.76
2022-09-23T08:44:50.852Z,14.23
2022-09-23T08:48:01.894Z,13.86
2022-09-23T08:50:45.425Z,14.06
2022-09-23T08:53:30.006Z,14.27
2022-09-23T08:56:04.489Z,13.74
2022-09-23T08:59:07.936Z,13.10
2022-09-23T09:02:02.679Z,12.76
2022-09-23T09:04:36.335Z,12.86
2022-09-23T09:07:34.727Z,12.67
2022-09-23T09:10:03.747Z,12.85
2022-09-23T09:12:40.983Z,13.27
2022-09-23T09:15:20.837Z,14.06
2022-09-23T09:18:00.765Z,13.52
2022-09-23T09:21:13.135Z,14.01
2022-09-23T09:24:01.854Z,13.00
2022-09-23T09:26:33.749Z,12.79
2022-09-23T09:29:34.225Z,12.95
2022-09-23T09:32:32.553Z,12.83
2022-09-23T09:35:24.079Z,12.85
2022-09-23T09:37:53.518Z,13.22
2022-09-23T09:40:21.545Z,13.43
2022-09-23T09:42:50.727Z,14.35
2022-09-23T09:45:57.717Z,15.17
2022-09-23T09:49:08.470Z,15.53
2022-09-23T09:51:37.274Z,15.47
2022-09-23T09:54:24.785Z,14.47
2022-09-23T09:56:53.543Z,13.61
2022-09-23T09:59:29.711Z,13.35
2022-09-23T10:02:25.995Z,13.56
2022-09-23T10:05:22.754Z,14.85
2022-09-23T10:07:50.855Z,14.36
2022-09-23T10:10:32.879Z,14.37
2022-09-23T10:13:19.805Z,15.95
2022-09-23T10:15:47.638Z,15.50
2022-09-23T10:18:46.760Z,15.45
2022-09-23T10:21:25.488Z,14.54
2022-09-23T10:23:58.750Z,14.14
2022-09-23T10:26:44.023Z,14.34
2022-09-23T10:29:32.502Z,14.08
2022-09-23T10:32:28.974Z,14.12
2022-09-23T10:35:22.656Z,14.25
2022-09-23T10:38:00.759Z,13.71
2022-09-23T10:40:56.211Z,13.80
2022-09-23T10:44:00.713Z,13.62
2022-09-23T10:46:39.664Z,13.56
2022-09-23T10:50:08.598Z,13.39
2022-09-23T10:53:15.336Z,13.42
2022-09-23T10:56:19.098Z,13.29
2022-09-23T10:59:29.242Z,13.38
2022-09-23T11:02:21.161Z,13.27
2022-09-23T11:05:18.811Z,13.17
2022-09-23T11:08:27.581Z,13.37
2022-09-23T11:11:11.682Z,13.23
2022-09-23T11:13:54.697Z,13.28
2022-09-23T11:16:51.791Z,13.13
2022-09-23T11:20:16.712Z,13.37
2022-09-23T11:23:18.757Z,13.33
2022-09-23T11:26:09.831Z,13.39
2022-09-23T11:29:35.654Z,13.46
2022-09-23T11:32:40.371Z,13.41
2022-09-23T11:35:22.733Z,13.50
2022-09-23T11:38:04.981Z,13.40
2022-09-23T11:40:41.049Z,13.55
2022-09-23T11:43:33.591Z,13.63
2022-09-23T11:46:29.155Z,13.90
2022-09-23T11:49:26.077Z,13.84
2022-09-23T11:52:37.396Z,13.82
2022-09-23T11:55:33.722Z,14.02
2022-09-23T11:58:35.273Z,14.07
2022-09-23T12:01:48.510Z,13.95
2022-09-23T12:04:37.269Z,14.07
2022-09-23T12:07:28.294Z,14.26
2022-09-23T12:10:06.995Z,14.36
2022-09-23T12:12:56.871Z,14.83
2022-09-23T12:15:43.161Z,14.77
2022-09-23T12:18:26.021Z,15.00
2022-09-23T12:21:46.329Z,14.98
2022-09-23T12:24:46.669Z,16.61
2022-09-23T12:27:39.624Z,15.73
2022-09-23T12:30:23.386Z,15.91
2022-09-23T12:32:51.501Z,15.18
2022-09-23T12:35:45.969Z,15.18
2022-09-23T12:38:53.562Z,14.65
2022-09-23T12:41:24.199Z,14.81
2022-09-23T12:43:58.579Z,14.57
2022-09-23T12:46:28.027Z,15.41
2022-09-23T12:48:59.127Z,16.01
2022-09-23T12:51:29.322Z,14.92
2022-09-23T12:54:22.865Z,14.80
2022-09-23T12:56:56.331Z,14.38
2022-09-23T12:59:53.661Z,14.17
2022-09-23T13:02:36.638Z,13.89
2022-09-23T13:05:44.964Z,14.05
2022-09-23T13:08:24.992Z,14.31
2022-09-23T13:11:01.249Z,14.28
2022-09-23T13:13:43.614Z,14.23
2022-09-23T13:16:25.606Z,16.38
2022-09-23T13:18:57.094Z,16.99
2022-09-23T13:21:43.453Z,17.30
2022-09-23T13:24:21.937Z,16.40
2022-09-23T13:27:27.643Z,15.06
2022-09-23T13:30:25.040Z,15.91
2022-09-23T13:33:14.291Z,15.93
2022-09-23T13:35:53.384Z,14.79
2022-09-23T13:38:30.085Z,14.86
2022-09-23T13:41:04.858Z,15.81
2022-09-23T13:43:41.471Z,15.68
2022-09-23T13:46:24.003Z,14.63
2022-09-23T13:48:55.182Z,14.37
2022-09-23T13:51:45.552Z,14.71
2022-09-23T13:54:33.580Z,14.52
2022-09-23T13:57:01.373Z,14.68
2022-09-23T13:59:42.542Z,14.02
2022-09-23T14:02:20.122Z,14.23
2022-09-23T14:04:48.492Z,14.22
2022-09-23T14:07:19.684Z,14.25
2022-09-23T14:09:52.463Z,14.29
2022-09-23T14:12:22.585Z,14.48
2022-09-23T14:14:53.383Z,14.19
2022-09-23T14:17:23.684Z,14.53
2022-09-23T14:19:51.893Z,14.63
2022-09-23T14:22:30.457Z,14.22
2022-09-23T14:25:00.065Z,14.53
2022-09-23T14:27:34.047Z,14.44
2022-09-23T14:30:04.019Z,13.97
2022-09-23T14:32:36.347Z,14.21
2022-09-23T14:35:22.416Z,14.03
2022-09-23T14:38:20.159Z,14.00
2022-09-23T14:41:18.442Z,14.32
2022-09-23T14:44:02.080Z,14.27
2022-09-23T14:46:35.238Z,14.03
2022-09-23T14:49:17.112Z,13.84
2022-09-23T14:51:54.485Z,14.07
2022-09-23T14:54:46.170Z,14.00
2022-09-23T14:57:23.447Z,14.00
2022-09-23T15:00:07.023Z,14.12
2022-09-23T15:02:39.416Z,14.11
2022-09-23T15:05:23.748Z,14.14
2022-09-23T15:07:59.726Z,14.20
2022-09-23T15:10:37.794Z,14.14
2022-09-23T15:13:30.104Z,14.00
2022-09-23T15:16:00.504Z,14.09
2022-09-23T15:18:39.045Z,14.11
2022-09-23T15:21:22.095Z,13.97
2022-09-23T15:23:57.169Z,13.87
2022-09-23T15:26:48.844Z,13.82
2022-09-23T15:29:17.315Z,13.84
2022-09-23T15:31:46.848Z,13.77
2022-09-23T15:34:14.959Z,13.66
2022-09-23T15:36:43.675Z,13.70
2022-09-23T15:39:13.061Z,13.61
2022-09-23T15:41:43.585Z,13.53
2022-09-23T15:44:15.543Z,13.55
2022-09-23T15:46:52.189Z,14.02
2022-09-23T15:49:37.257Z,13.66
2022-09-23T15:52:08.418Z,13.46
2022-09-23T15:54:38.163Z,13.50
2022-09-23T15:57:06.037Z,13.03
2022-09-23T15:59:33.950Z,13.05
2022-09-23T16:02:21.481Z,12.99
2022-09-23T16:04:51.334Z,12.98
2022-09-23T16:07:21.121Z,12.89
2022-09-23T16:09:49.405Z,12.84
2022-09-23T16:12:17.220Z,12.92
2022-09-23T16:14:46.027Z,12.77
2022-09-23T16:17:14.894Z,12.61
2022-09-23T16:19:43.661Z,12.63
2022-09-23T16:22:16.163Z,12.67
2022-09-23T16:24:44.392Z,12.62
2022-09-23T16:27:19.262Z,12.54
2022-09-23T16:29:47.092Z,12.54
2022-09-23T16:32:18.902Z,12.49
2022-09-23T16:34:49.155Z,12.47
2022-09-23T16:37:18.074Z,12.44
2022-09-23T16:39:45.791Z,12.34
2022-09-23T16:42:13.724Z,12.27
2022-09-23T16:44:41.701Z,12.33
2022-09-23T16:47:09.819Z,12.34
2022-09-23T16:49:37.564Z,12.36
2022-09-23T16:52:05.501Z,12.25
2022-09-23T16:54:37.468Z,12.24
2022-09-23T16:57:05.667Z,12.22
2022-09-23T16:59:53.450Z,12.12
2022-09-23T17:02:40.753Z,12.08
2022-09-23T17:05:10.311Z,12.00
2022-09-23T17:07:38.878Z,12.02
2022-09-23T17:10:07.815Z,11.89
2022-09-23T17:12:36.798Z,11.98
2022-09-23T17:15:07.544Z,11.84
2022-09-23T17:17:37.890Z,11.81
2022-09-23T17:20:07.451Z,11.58
2022-09-23T17:22:35.296Z,11.51
2022-09-23T17:25:03.972Z,11.60
2022-09-23T17:27:32.203Z,11.57
2022-09-23T17:29:59.985Z,11.57
2022-09-23T17:32:28.266Z,11.44
2022-09-23T17:34:57.702Z,11.42
2022-09-23T17:37:26.051Z,11.38
2022-09-23T17:39:54.209Z,11.28
2022-09-23T17:42:22.463Z,11.19
2022-09-23T17:44:50.607Z,11.31
2022-09-23T17:47:19.044Z,11.21
2022-09-23T17:49:47.672Z,11.06
2022-09-23T17:52:16.084Z,10.85
2022-09-23T17:54:43.902Z,10.78
2022-09-23T17:57:14.810Z,10.90
2022-09-23T17:59:42.566Z,10.88
2022-09-23T18:02:15.405Z,10.49
2022-09-23T18:04:43.777Z,10.22
2022-09-23T18:07:11.367Z,10.47
2022-09-23T18:09:39.543Z,10.60
2022-09-23T18:12:08.195Z,10.49
2022-09-23T18:14:36.516Z,10.60
2022-09-23T18:17:04.910Z,10.08
2022-09-23T18:19:33.691Z,9.92
2022-09-23T18:22:02.408Z,10.11
2022-09-23T18:24:33.659Z,10.25
2022-09-23T18:27:04.537Z,10.28
2022-09-23T18:29:34.920Z,9.74
2022-09-23T18:32:04.276Z,9.71
2022-09-23T18:34:33.158Z,9.85
2022-09-23T18:37:01.009Z,10.23
2022-09-23T18:39:29.275Z,10.21
2022-09-23T18:41:57.437Z,10.17
2022-09-23T18:44:26.249Z,10.10
2022-09-23T18:46:54.772Z,10.19
2022-09-23T18:49:41.507Z,10.04
2022-09-23T18:52:10.124Z,10.02
2022-09-23T18:54:38.122Z,10.00
2022-09-23T18:57:06.268Z,9.54
2022-09-23T18:59:35.435Z,9.86
2022-09-23T19:02:04.065Z,9.70
2022-09-23T19:04:32.540Z,9.98
2022-09-23T19:07:01.015Z,9.87
2022-09-23T19:09:28.753Z,9.83
2022-09-23T19:11:57.641Z,9.92
2022-09-23T19:14:26.865Z,9.89
2022-09-23T19:16:55.615Z,10.00
2022-09-23T19:19:24.746Z,10.00
2022-09-23T19:21:57.701Z,9.98
2022-09-23T19:24:27.007Z,9.95
2022-09-23T19:26:55.812Z,9.88
2022-09-23T19:29:25.126Z,10.03
2022-09-23T19:31:53.186Z,9.60
2022-09-23T19:34:29.875Z,9.69
2022-09-23T19:36:59.755Z,9.53
2022-09-23T19:39:31.919Z,9.54
2022-09-23T19:42:03.879Z,9.75
2022-09-23T19:44:40.159Z,9.82
2022-09-23T19:47:15.871Z,9.53
2022-09-23T19:49:45.994Z,9.75
2022-09-23T19:52:18.711Z,9.78
2022-09-23T19:54:50.385Z,9.75
2022-09-23T19:57:19.939Z,9.64
2022-09-23T19:59:49.104Z,9.58
2022-09-23T20:02:21.105Z,9.48
2022-09-23T20:04:52.037Z,9.43
2022-09-23T20:07:24.692Z,9.46
2022-09-23T20:09:54.029Z,9.39
2022-09-23T20:12:23.688Z,9.17
2022-09-23T20:14:52.991Z,8.82
2022-09-23T20:17:23.429Z,8.93
2022-09-23T20:19:53.460Z,8.28
2022-09-23T20:22:27.519Z,8.78
2022-09-23T20:25:01.073Z,8.22
2022-09-23T20:27:34.963Z,8.60
2022-09-23T20:30:04.054Z,8.60
2022-09-23T20:32:32.687Z,8.55
2022-09-23T20:35:01.043Z,8.29
2022-09-23T20:37:30.986Z,8.49
2022-09-23T20:39:58.761Z,8.69
2022-09-23T20:42:27.131Z,8.63
2022-09-23T20:44:55.751Z,8.34
2022-09-23T20:47:25.071Z,8.27
2022-09-23T20:49:53.984Z,8.18
2022-09-23T20:52:23.350Z,7.78
2022-09-23T20:54:52.404Z,7.46
2022-09-23T20:57:20.904Z,7.40
2022-09-23T20:59:49.603Z,7.40
2022-09-23T21:02:17.887Z,8.00
2022-09-23T21:04:45.981Z,7.65
2022-09-23T21:07:14.491Z,7.98
2022-09-23T21:09:42.536Z,7.94
2022-09-23T21:12:10.211Z,7.83
2022-09-23T21:14:38.456Z,7.71
2022-09-23T21:17:06.933Z,7.96
2022-09-23T21:19:38.090Z,8.12
2022-09-23T21:22:06.088Z,7.88
2022-09-23T21:25:03.851Z,7.59
2022-09-23T21:27:22.933Z,7.67
2022-09-23T21:29:50.754Z,7.63
2022-09-23T21:32:18.785Z,7.94
2022-09-23T21:34:46.788Z,7.86
2022-09-23T21:37:14.620Z,7.43
2022-09-23T21:40:02.262Z,7.60
2022-09-23T21:42:30.298Z,7.81
2022-09-23T21:44:57.934Z,7.94
2022-09-23T21:47:26.078Z,7.92
2022-09-23T21:49:54.122Z,7.41
2022-09-23T21:52:21.810Z,7.60
2022-09-23T21:54:49.808Z,7.52
2022-09-23T21:57:17.792Z,7.50
2022-09-23T21:59:45.603Z,7.61
2022-09-23T22:02:13.377Z,7.34
2022-09-23T22:04:41.520Z,7.45
2022-09-23T22:07:09.456Z,7.32
2022-09-23T22:09:37.737Z,7.02
2022-09-23T22:12:08.002Z,7.27
2022-09-23T22:14:36.123Z,7.32
2022-09-23T22:17:07.306Z,7.42
2022-09-23T22:19:45.585Z,7.34
2022-09-23T22:22:17.846Z,7.27
2022-09-23T22:24:47.888Z,7.32
2022-09-23T22:27:19.074Z,7.23
2022-09-23T22:30:06.177Z,7.26
2022-09-23T22:32:54.328Z,7.32
2022-09-23T22:35:24.722Z,7.22
2022-09-23T22:37:55.398Z,7.39
2022-09-23T22:40:24.295Z,7.27
2022-09-23T22:42:52.846Z,7.42
2022-09-23T22:45:20.706Z,7.21
2022-09-23T22:47:48.913Z,7.23
2022-09-23T22:50:17.030Z,7.15
2022-09-23T22:52:45.706Z,7.21
2022-09-23T22:55:13.438Z,7.22
2022-09-23T22:57:41.257Z,7.20
2022-09-23T23:00:11.123Z,7.26
2022-09-23T23:02:40.020Z,6.98
2022-09-23T23:05:08.537Z,6.77
2022-09-23T23:07:36.319Z,6.77
2022-09-23T23:10:10.520Z,6.87
2022-09-23T23:12:39.642Z,6.85
2022-09-23T23:15:12.469Z,6.63
2022-09-23T23:17:41.490Z,6.30
2022-09-23T23:20:09.509Z,6.43
2022-09-23T23:22:37.441Z,6.76
2022-09-23T23:25:06.486Z,6.89
2022-09-23T23:27:35.253Z,6.87
2022-09-23T23:30:02.829Z,6.94
2022-09-23T23:32:33.946Z,6.63
2022-09-23T23:35:01.693Z,6.50
2022-09-23T23:37:30.044Z,6.36
2022-09-23T23:39:57.922Z,6.30
2022-09-23T23:42:27.337Z,6.26
2022-09-23T23:44:55.306Z,6.54
2022-09-23T23:47:24.075Z,6.53
2022-09-23T23:49:51.769Z,6.48
2022-09-23T23:52:19.361Z,6.39
2022-09-23T23:55:12.306Z,6.47
2022-09-23T23:57:39.911Z,6.40
